sensor_id;sensor_type;location;lat;lon;timestamp;pressure;altitude;pressure_sealevel;temperature;humidity
49825;BME280;35714;55.708;37.478;2022-10-16T00:00:41;100602.84;;;5.72;57.06
49825;BME280;35714;55.708;37.478;2022-10-16T00:03:08;100606.19;;;5.74;57.17
49825;BME280;35714;55.708;37.478;2022-10-16T00:05:42;100615.25;;;5.73;57.00
49825;BME280;35714;55.708;37.478;2022-10-16T00:08:10;100612.91;;;5.70;57.29
49825;BME280;35714;55.708;37.478;2022-10-16T00:10:36;100618.47;;;5.69;57.05
49825;BME280;35714;55.708;37.478;2022-10-16T00:13:02;100622.38;;;5.66;57.19
49825;BME280;35714;55.708;37.478;2022-10-16T00:15:28;100621.03;;;5.62;57.28
49825;BME280;35714;55.708;37.478;2022-10-16T00:17:54;100620.38;;;5.60;57.72
49825;BME280;35714;55.708;37.478;2022-10-16T00:20:20;100627.41;;;5.61;57.63
49825;BME280;35714;55.708;37.478;2022-10-16T00:23:04;100626.09;;;5.57;57.60
49825;BME280;35714;55.708;37.478;2022-10-16T00:25:31;100629.13;;;5.54;57.50
49825;BME280;35714;55.708;37.478;2022-10-16T00:27:59;100626.44;;;5.54;57.71
49825;BME280;35714;55.708;37.478;2022-10-16T00:30:25;100635.84;;;5.50;57.80
49825;BME280;35714;55.708;37.478;2022-10-16T00:32:53;100630.47;;;5.50;57.62
49825;BME280;35714;55.708;37.478;2022-10-16T00:35:18;100623.44;;;5.49;57.90
49825;BME280;35714;55.708;37.478;2022-10-16T00:37:44;100626.94;;;5.49;57.75
49825;BME280;35714;55.708;37.478;2022-10-16T00:40:10;100628.81;;;5.49;57.68
49825;BME280;35714;55.708;37.478;2022-10-16T00:42:36;100630.81;;;5.47;57.86
49825;BME280;35714;55.708;37.478;2022-10-16T00:45:03;100631.16;;;5.43;57.85
49825;BME280;35714;55.708;37.478;2022-10-16T00:47:41;100635.53;;;5.45;58.05
49825;BME280;35714;55.708;37.478;2022-10-16T00:50:26;100628.28;;;5.45;57.74
49825;BME280;35714;55.708;37.478;2022-10-16T00:52:53;100635.38;;;5.38;58.06
49825;BME280;35714;55.708;37.478;2022-10-16T00:55:20;100636.38;;;5.37;58.26
49825;BME280;35714;55.708;37.478;2022-10-16T00:57:46;100643.97;;;5.33;58.20
49825;BME280;35714;55.708;37.478;2022-10-16T01:00:18;100635.91;;;5.33;58.30
49825;BME280;35714;55.708;37.478;2022-10-16T01:02:44;100639.94;;;5.29;58.14
49825;BME280;35714;55.708;37.478;2022-10-16T01:05:10;100637.25;;;5.29;58.28
49825;BME280;35714;55.708;37.478;2022-10-16T01:13:05;100649.53;;;5.23;58.54
49825;BME280;35714;55.708;37.478;2022-10-16T01:15:42;100646.31;;;5.20;58.71
49825;BME280;35714;55.708;37.478;2022-10-16T01:21:08;100648.69;;;5.15;58.54
49825;BME280;35714;55.708;37.478;2022-10-16T01:31:40;100649.03;;;5.12;58.66
49825;BME280;35714;55.708;37.478;2022-10-16T01:34:22;100656.44;;;5.10;58.64
49825;BME280;35714;55.708;37.478;2022-10-16T01:36:53;100658.75;;;5.04;58.88
49825;BME280;35714;55.708;37.478;2022-10-16T01:39:25;100651.38;;;5.06;59.04
49825;BME280;35714;55.708;37.478;2022-10-16T01:42:06;100661.28;;;5.06;58.89
49825;BME280;35714;55.708;37.478;2022-10-16T01:44:34;100657.94;;;5.04;59.05
49825;BME280;35714;55.708;37.478;2022-10-16T01:47:02;100657.09;;;5.03;59.17
49825;BME280;35714;55.708;37.478;2022-10-16T01:49:32;100655.41;;;5.02;59.01
49825;BME280;35714;55.708;37.478;2022-10-16T01:52:02;100656.56;;;5.00;58.93
49825;BME280;35714;55.708;37.478;2022-10-16T01:54:31;100650.38;;;4.99;59.37
49825;BME280;35714;55.708;37.478;2022-10-16T01:56:59;100656.78;;;4.98;59.26
49825;BME280;35714;55.708;37.478;2022-10-16T01:59:30;100656.09;;;4.96;59.14
49825;BME280;35714;55.708;37.478;2022-10-16T02:02:00;100658.94;;;4.95;59.26
49825;BME280;35714;55.708;37.478;2022-10-16T02:04:51;100654.41;;;4.95;59.36
49825;BME280;35714;55.708;37.478;2022-10-16T02:07:18;100659.78;;;4.95;59.14
49825;BME280;35714;55.708;37.478;2022-10-16T02:09:44;100663.47;;;4.94;59.33
49825;BME280;35714;55.708;37.478;2022-10-16T02:12:15;100663.81;;;4.91;59.50
49825;BME280;35714;55.708;37.478;2022-10-16T02:14:44;100663.31;;;4.87;59.38
49825;BME280;35714;55.708;37.478;2022-10-16T02:17:16;100660.78;;;4.86;59.57
49825;BME280;35714;55.708;37.478;2022-10-16T02:19:43;100655.41;;;4.86;59.49
49825;BME280;35714;55.708;37.478;2022-10-16T02:22:18;100667.84;;;4.87;59.52
49825;BME280;35714;55.708;37.478;2022-10-16T02:25:17;100656.75;;;4.90;59.49
49825;BME280;35714;55.708;37.478;2022-10-16T02:27:55;100664.47;;;4.85;59.57
49825;BME280;35714;55.708;37.478;2022-10-16T02:30:31;100670.84;;;4.84;59.47
49825;BME280;35714;55.708;37.478;2022-10-16T02:33:00;100668.81;;;4.78;59.47
49825;BME280;35714;55.708;37.478;2022-10-16T02:35:27;100670.53;;;4.79;59.55
49825;BME280;35714;55.708;37.478;2022-10-16T02:37:54;100657.91;;;4.71;59.32
49825;BME280;35714;55.708;37.478;2022-10-16T02:40:21;100681.59;;;4.76;59.61
49825;BME280;35714;55.708;37.478;2022-10-16T02:42:51;100669.16;;;4.75;59.53
49825;BME280;35714;55.708;37.478;2022-10-16T02:45:17;100672.19;;;4.72;59.67
49825;BME280;35714;55.708;37.478;2022-10-16T02:47:43;100673.19;;;4.70;59.85
49825;BME280;35714;55.708;37.478;2022-10-16T02:50:09;100679.56;;;4.69;59.65
49825;BME280;35714;55.708;37.478;2022-10-16T02:52:35;100680.59;;;4.68;59.91
49825;BME280;35714;55.708;37.478;2022-10-16T02:55:01;100668.50;;;4.64;59.71
49825;BME280;35714;55.708;37.478;2022-10-16T02:57:28;100679.06;;;4.66;59.67
49825;BME280;35714;55.708;37.478;2022-10-16T02:59:54;100683.78;;;4.64;60.07
49825;BME280;35714;55.708;37.478;2022-10-16T03:02:20;100677.88;;;4.60;59.91
49825;BME280;35714;55.708;37.478;2022-10-16T03:04:46;100684.28;;;4.59;60.00
49825;BME280;35714;55.708;37.478;2022-10-16T03:07:11;100683.56;;;4.57;60.14
49825;BME280;35714;55.708;37.478;2022-10-16T03:09:37;100690.63;;;4.58;59.85
49825;BME280;35714;55.708;37.478;2022-10-16T03:12:03;100687.13;;;4.58;60.00
49825;BME280;35714;55.708;37.478;2022-10-16T03:14:29;100686.44;;;4.56;60.20
49825;BME280;35714;55.708;37.478;2022-10-16T03:16:54;100683.91;;;4.54;60.30
49825;BME280;35714;55.708;37.478;2022-10-16T03:19:20;100694.66;;;4.54;60.11
49825;BME280;35714;55.708;37.478;2022-10-16T03:21:46;100687.63;;;4.53;60.10
49825;BME280;35714;55.708;37.478;2022-10-16T03:24:12;100693.31;;;4.50;60.26
49825;BME280;35714;55.708;37.478;2022-10-16T03:26:37;100697.00;;;4.49;60.36
49825;BME280;35714;55.708;37.478;2022-10-16T03:29:03;100706.75;;;4.50;60.24
49825;BME280;35714;55.708;37.478;2022-10-16T03:31:30;100704.06;;;4.50;60.03
49825;BME280;35714;55.708;37.478;2022-10-16T03:33:56;100707.41;;;4.44;60.30
49825;BME280;35714;55.708;37.478;2022-10-16T03:36:22;100710.91;;;4.44;60.45
49825;BME280;35714;55.708;37.478;2022-10-16T03:38:48;100706.03;;;4.40;60.46
49825;BME280;35714;55.708;37.478;2022-10-16T03:41:13;100709.91;;;4.37;60.47
49825;BME280;35714;55.708;37.478;2022-10-16T03:43:39;100714.41;;;4.37;60.48
49825;BME280;35714;55.708;37.478;2022-10-16T03:46:05;100712.75;;;4.36;60.60
49825;BME280;35714;55.708;37.478;2022-10-16T03:48:31;100707.69;;;4.32;60.75
49825;BME280;35714;55.708;37.478;2022-10-16T03:50:57;100705.16;;;4.31;60.74
49825;BME280;35714;55.708;37.478;2022-10-16T03:53:23;100702.31;;;4.32;60.85
49825;BME280;35714;55.708;37.478;2022-10-16T03:55:49;100705.16;;;4.31;60.94
49825;BME280;35714;55.708;37.478;2022-10-16T03:58:15;100702.66;;;4.29;60.87
49825;BME280;35714;55.708;37.478;2022-10-16T04:00:42;100700.63;;;4.23;60.82
49825;BME280;35714;55.708;37.478;2022-10-16T04:03:08;100707.31;;;4.27;60.95
49825;BME280;35714;55.708;37.478;2022-10-16T04:05:34;100712.03;;;4.25;61.04
49825;BME280;35714;55.708;37.478;2022-10-16T04:08:00;100711.03;;;4.26;61.01
49825;BME280;35714;55.708;37.478;2022-10-16T04:10:25;100699.59;;;4.24;61.09
49825;BME280;35714;55.708;37.478;2022-10-16T04:12:51;100707.66;;;4.24;61.01
49825;BME280;35714;55.708;37.478;2022-10-16T04:15:17;100703.81;;;4.27;61.04
49825;BME280;35714;55.708;37.478;2022-10-16T04:17:42;100706.66;;;4.25;61.04
49825;BME280;35714;55.708;37.478;2022-10-16T04:20:08;100707.47;;;4.26;61.00
49825;BME280;35714;55.708;37.478;2022-10-16T04:22:34;100709.50;;;4.24;61.10
49825;BME280;35714;55.708;37.478;2022-10-16T04:25:00;100715.69;;;4.24;61.01
49825;BME280;35714;55.708;37.478;2022-10-16T04:27:25;100710.00;;;4.27;61.03
49825;BME280;35714;55.708;37.478;2022-10-16T04:29:51;100712.03;;;4.25;61.17
49825;BME280;35714;55.708;37.478;2022-10-16T04:32:17;100705.28;;;4.21;61.27
49825;BME280;35714;55.708;37.478;2022-10-16T04:34:42;100710.31;;;4.24;61.09
49825;BME280;35714;55.708;37.478;2022-10-16T04:37:08;100726.13;;;4.27;60.95
49825;BME280;35714;55.708;37.478;2022-10-16T04:39:34;100722.59;;;4.27;60.94
49825;BME280;35714;55.708;37.478;2022-10-16T04:42:00;100720.25;;;4.32;60.99
49825;BME280;35714;55.708;37.478;2022-10-16T04:44:25;100721.16;;;4.41;60.79
49825;BME280;35714;55.708;37.478;2022-10-16T04:46:51;100724.88;;;4.56;60.28
49825;BME280;35714;55.708;37.478;2022-10-16T04:49:17;100727.91;;;4.61;60.10
49825;BME280;35714;55.708;37.478;2022-10-16T04:51:42;100721.19;;;4.57;60.10
49825;BME280;35714;55.708;37.478;2022-10-16T04:54:09;100727.91;;;4.61;59.94
49825;BME280;35714;55.708;37.478;2022-10-16T04:56:35;100728.97;;;4.68;60.00
49825;BME280;35714;55.708;37.478;2022-10-16T04:59:08;100724.09;;;4.72;59.97
49825;BME280;35714;55.708;37.478;2022-10-16T05:01:34;100730.63;;;4.78;59.65
49825;BME280;35714;55.708;37.478;2022-10-16T05:04:00;100732.97;;;4.81;59.50
49825;BME280;35714;55.708;37.478;2022-10-16T05:06:26;100731.50;;;4.86;59.59
49825;BME280;35714;55.708;37.478;2022-10-16T05:08:51;100728.31;;;4.91;59.27
49825;BME280;35714;55.708;37.478;2022-10-16T05:11:17;100730.19;;;4.99;59.16
49825;BME280;35714;55.708;37.478;2022-10-16T05:13:44;100730.00;;;5.09;58.59
49825;BME280;35714;55.708;37.478;2022-10-16T05:16:10;100729.69;;;5.12;58.27
49825;BME280;35714;55.708;37.478;2022-10-16T05:18:35;100732.38;;;5.20;58.67
49825;BME280;35714;55.708;37.478;2022-10-16T05:21:01;100736.06;;;5.35;57.88
49825;BME280;35714;55.708;37.478;2022-10-16T05:23:27;100740.75;;;5.50;57.53
49825;BME280;35714;55.708;37.478;2022-10-16T05:25:56;100729.66;;;5.69;57.15
49825;BME280;35714;55.708;37.478;2022-10-16T05:28:27;100738.00;;;5.91;56.73
49825;BME280;35714;55.708;37.478;2022-10-16T05:30:54;100749.75;;;6.14;56.37
49825;BME280;35714;55.708;37.478;2022-10-16T05:33:21;100739.59;;;6.33;55.57
49825;BME280;35714;55.708;37.478;2022-10-16T05:35:47;100745.88;;;6.57;55.16
49825;BME280;35714;55.708;37.478;2022-10-16T05:38:13;100748.16;;;6.76;54.85
49825;BME280;35714;55.708;37.478;2022-10-16T05:40:38;100738.88;;;7.02;54.45
49825;BME280;35714;55.708;37.478;2022-10-16T05:43:04;100733.97;;;7.29;53.46
49825;BME280;35714;55.708;37.478;2022-10-16T05:45:30;100736.19;;;7.48;52.92
49825;BME280;35714;55.708;37.478;2022-10-16T05:47:56;100746.91;;;7.56;52.24
49825;BME280;35714;55.708;37.478;2022-10-16T05:50:22;100741.97;;;7.37;52.09
49825;BME280;35714;55.708;37.478;2022-10-16T05:52:47;100748.25;;;7.14;52.26
49825;BME280;35714;55.708;37.478;2022-10-16T05:55:13;100749.44;;;6.89;52.61
49825;BME280;35714;55.708;37.478;2022-10-16T05:57:39;100746.53;;;6.67;53.17
49825;BME280;35714;55.708;37.478;2022-10-16T06:00:05;100749.81;;;6.46;53.56
49825;BME280;35714;55.708;37.478;2022-10-16T06:02:38;100748.72;;;6.32;54.03
49825;BME280;35714;55.708;37.478;2022-10-16T06:05:04;100754.44;;;6.21;54.63
49825;BME280;35714;55.708;37.478;2022-10-16T06:07:34;100758.34;;;6.18;54.74
49825;BME280;35714;55.708;37.478;2022-10-16T06:10:01;100758.53;;;6.17;54.52
49825;BME280;35714;55.708;37.478;2022-10-16T06:12:28;100760.53;;;6.23;54.65
49825;BME280;35714;55.708;37.478;2022-10-16T06:14:55;100757.13;;;6.21;54.80
49825;BME280;35714;55.708;37.478;2022-10-16T06:17:20;100756.31;;;6.20;54.60
49825;BME280;35714;55.708;37.478;2022-10-16T06:19:46;100763.53;;;6.28;54.98
49825;BME280;35714;55.708;37.478;2022-10-16T06:22:12;100764.47;;;6.43;54.47
49825;BME280;35714;55.708;37.478;2022-10-16T06:24:38;100767.59;;;6.63;54.56
49825;BME280;35714;55.708;37.478;2022-10-16T06:27:04;100760.13;;;7.28;53.46
49825;BME280;35714;55.708;37.478;2022-10-16T06:29:30;100758.97;;;7.99;52.36
49825;BME280;35714;55.708;37.478;2022-10-16T06:31:56;100760.53;;;8.67;50.32
49825;BME280;35714;55.708;37.478;2022-10-16T06:34:22;100760.88;;;9.37;49.69
49825;BME280;35714;55.708;37.478;2022-10-16T06:36:47;100761.84;;;10.08;47.58
49825;BME280;35714;55.708;37.478;2022-10-16T06:39:13;100763.81;;;10.62;46.16
49825;BME280;35714;55.708;37.478;2022-10-16T06:41:38;100766.88;;;11.14;44.65
49825;BME280;35714;55.708;37.478;2022-10-16T06:44:14;100777.00;;;11.54;44.83
49825;BME280;35714;55.708;37.478;2022-10-16T06:46:40;100773.88;;;11.84;43.17
49825;BME280;35714;55.708;37.478;2022-10-16T06:49:05;100771.94;;;12.18;43.53
49825;BME280;35714;55.708;37.478;2022-10-16T06:51:31;100768.91;;;12.59;40.94
49825;BME280;35714;55.708;37.478;2022-10-16T06:53:59;100769.97;;;13.04;40.04
49825;BME280;35714;55.708;37.478;2022-10-16T06:56:26;100771.44;;;13.38;39.01
49825;BME280;35714;55.708;37.478;2022-10-16T06:58:53;100768.81;;;13.57;38.48
49825;BME280;35714;55.708;37.478;2022-10-16T07:01:21;100771.25;;;13.90;37.18
49825;BME280;35714;55.708;37.478;2022-10-16T07:03:48;100760.53;;;14.14;36.92
49825;BME280;35714;55.708;37.478;2022-10-16T07:06:17;100764.31;;;14.31;36.73
49825;BME280;35714;55.708;37.478;2022-10-16T07:08:44;100771.91;;;14.66;36.03
49825;BME280;35714;55.708;37.478;2022-10-16T07:11:15;100765.19;;;14.99;35.93
49825;BME280;35714;55.708;37.478;2022-10-16T07:13:43;100773.25;;;15.24;35.01
49825;BME280;35714;55.708;37.478;2022-10-16T07:16:12;100771.75;;;15.40;34.87
49825;BME280;35714;55.708;37.478;2022-10-16T07:18:38;100773.72;;;15.75;34.23
49825;BME280;35714;55.708;37.478;2022-10-16T07:21:11;100775.06;;;15.96;33.90
49825;BME280;35714;55.708;37.478;2022-10-16T07:23:38;100770.66;;;16.31;33.81
49825;BME280;35714;55.708;37.478;2022-10-16T07:26:04;100772.78;;;16.93;33.61
49825;BME280;35714;55.708;37.478;2022-10-16T07:28:37;100782.88;;;17.50;31.79
49825;BME280;35714;55.708;37.478;2022-10-16T07:31:07;100781.22;;;17.66;30.90
49825;BME280;35714;55.708;37.478;2022-10-16T07:33:34;100778.28;;;18.01;30.88
49825;BME280;35714;55.708;37.478;2022-10-16T07:36:03;100776.47;;;18.51;29.99
49825;BME280;35714;55.708;37.478;2022-10-16T07:38:30;100787.41;;;18.68;29.24
49825;BME280;35714;55.708;37.478;2022-10-16T07:40:58;100783.38;;;18.76;29.35
49825;BME280;35714;55.708;37.478;2022-10-16T07:43:27;100777.22;;;18.86;29.22
49825;BME280;35714;55.708;37.478;2022-10-16T07:45:56;100781.59;;;19.09;28.21
49825;BME280;35714;55.708;37.478;2022-10-16T07:48:23;100774.84;;;18.95;28.09
49825;BME280;35714;55.708;37.478;2022-10-16T07:50:52;100781.69;;;18.92;27.66
49825;BME280;35714;55.708;37.478;2022-10-16T07:53:20;100780.75;;;18.64;27.94
49825;BME280;35714;55.708;37.478;2022-10-16T07:55:46;100781.81;;;18.80;28.39
49825;BME280;35714;55.708;37.478;2022-10-16T07:58:18;100777.97;;;19.31;28.18
49825;BME280;35714;55.708;37.478;2022-10-16T08:00:45;100781.97;;;19.45;27.43
49825;BME280;35714;55.708;37.478;2022-10-16T08:03:10;100776.75;;;19.48;26.86
49825;BME280;35714;55.708;37.478;2022-10-16T08:05:36;100777.94;;;19.58;26.75
49825;BME280;35714;55.708;37.478;2022-10-16T08:08:02;100788.22;;;19.73;26.77
49825;BME280;35714;55.708;37.478;2022-10-16T08:10:29;100789.81;;;19.96;26.29
49825;BME280;35714;55.708;37.478;2022-10-16T08:12:54;100785.84;;;20.19;26.08
49825;BME280;35714;55.708;37.478;2022-10-16T08:15:20;100776.25;;;20.22;25.75
49825;BME280;35714;55.708;37.478;2022-10-16T08:18:01;100781.75;;;20.22;26.13
49825;BME280;35714;55.708;37.478;2022-10-16T08:20:28;100782.09;;;20.35;25.98
49825;BME280;35714;55.708;37.478;2022-10-16T08:22:55;100775.94;;;20.66;25.14
49825;BME280;35714;55.708;37.478;2022-10-16T08:25:23;100778.72;;;20.71;25.76
49825;BME280;35714;55.708;37.478;2022-10-16T08:27:49;100773.00;;;20.93;24.88
49825;BME280;35714;55.708;37.478;2022-10-16T08:30:17;100777.13;;;20.90;25.21
49825;BME280;35714;55.708;37.478;2022-10-16T08:32:42;100778.25;;;21.00;25.01
49825;BME280;35714;55.708;37.478;2022-10-16T08:35:10;100781.06;;;21.20;25.15
49825;BME280;35714;55.708;37.478;2022-10-16T08:37:36;100780.59;;;21.54;24.79
49825;BME280;35714;55.708;37.478;2022-10-16T08:40:04;100780.56;;;21.65;23.89
49825;BME280;35714;55.708;37.478;2022-10-16T08:45:08;100787.22;;;21.99;23.25
49825;BME280;35714;55.708;37.478;2022-10-16T08:47:56;100777.25;;;22.04;22.93
49825;BME280;35714;55.708;37.478;2022-10-16T08:50:28;100776.16;;;21.99;23.53
49825;BME280;35714;55.708;37.478;2022-10-16T08:52:55;100771.06;;;22.48;22.96
49825;BME280;35714;55.708;37.478;2022-10-16T08:55:41;100771.59;;;22.65;22.11
49825;BME280;35714;55.708;37.478;2022-10-16T08:58:34;100768.59;;;23.12;22.11
49825;BME280;35714;55.708;37.478;2022-10-16T09:01:04;100763.16;;;22.91;21.77
49825;BME280;35714;55.708;37.478;2022-10-16T09:17:45;100764.25;;;23.74;20.85
49825;BME280;35714;55.708;37.478;2022-10-16T09:20:38;100762.00;;;23.76;20.16
49825;BME280;35714;55.708;37.478;2022-10-16T09:23:40;100754.72;;;23.17;20.98
49825;BME280;35714;55.708;37.478;2022-10-16T09:26:10;100766.25;;;22.79;20.67
49825;BME280;35714;55.708;37.478;2022-10-16T09:28:36;100764.94;;;22.72;21.03
49825;BME280;35714;55.708;37.478;2022-10-16T09:31:02;100764.34;;;22.75;21.22
49825;BME280;35714;55.708;37.478;2022-10-16T09:33:33;100760.47;;;22.76;21.06
49825;BME280;35714;55.708;37.478;2022-10-16T09:36:02;100770.41;;;22.82;20.81
49825;BME280;35714;55.708;37.478;2022-10-16T09:38:31;100762.75;;;22.58;21.08
49825;BME280;35714;55.708;37.478;2022-10-16T09:40:58;100759.34;;;22.82;20.82
49825;BME280;35714;55.708;37.478;2022-10-16T09:43:39;100751.44;;;23.15;20.68
49825;BME280;35714;55.708;37.478;2022-10-16T09:46:08;100769.63;;;23.26;20.04
49825;BME280;35714;55.708;37.478;2022-10-16T09:48:48;100752.25;;;23.15;19.99
49825;BME280;35714;55.708;37.478;2022-10-16T09:51:24;100770.19;;;23.23;20.18
49825;BME280;35714;55.708;37.478;2022-10-16T09:54:01;100744.09;;;23.34;20.02
49825;BME280;35714;55.708;37.478;2022-10-16T09:56:32;100750.66;;;23.49;19.76
49825;BME280;35714;55.708;37.478;2022-10-16T09:59:01;100746.41;;;23.91;19.72
49825;BME280;35714;55.708;37.478;2022-10-16T10:01:36;100759.47;;;24.39;18.74
49825;BME280;35714;55.708;37.478;2022-10-16T10:04:06;100749.00;;;24.06;18.90
49825;BME280;35714;55.708;37.478;2022-10-16T10:06:35;100748.50;;;23.70;19.21
49825;BME280;35714;55.708;37.478;2022-10-16T10:09:27;100742.16;;;23.69;19.48
49825;BME280;35714;55.708;37.478;2022-10-16T10:11:54;100739.50;;;23.54;19.48
49825;BME280;35714;55.708;37.478;2022-10-16T10:14:36;100736.56;;;23.74;19.43
49825;BME280;35714;55.708;37.478;2022-10-16T10:19:46;100742.75;;;23.32;20.09
49825;BME280;35714;55.708;37.478;2022-10-16T10:33:20;100748.97;;;23.03;19.97
49825;BME280;35714;55.708;37.478;2022-10-16T10:38:59;100748.94;;;22.58;20.69
49825;BME280;35714;55.708;37.478;2022-10-16T10:44:38;100739.59;;;22.44;20.69
49825;BME280;35714;55.708;37.478;2022-10-16T10:58:04;100733.44;;;22.57;20.74
49825;BME280;35714;55.708;37.478;2022-10-16T11:06:20;100729.69;;;22.38;21.13
49825;BME280;35714;55.708;37.478;2022-10-16T11:08:55;100728.28;;;22.45;21.13
49825;BME280;35714;55.708;37.478;2022-10-16T11:14:15;100718.22;;;22.65;20.95
49825;BME280;35714;55.708;37.478;2022-10-16T11:16:54;100713.72;;;22.79;20.95
49825;BME280;35714;55.708;37.478;2022-10-16T11:19:39;100720.50;;;23.02;20.71
49825;BME280;35714;55.708;37.478;2022-10-16T11:22:36;100713.03;;;23.42;20.27
49825;BME280;35714;55.708;37.478;2022-10-16T11:27:54;100719.69;;;24.05;19.46
49825;BME280;35714;55.708;37.478;2022-10-16T11:30:25;100713.88;;;24.02;19.70
49825;BME280;35714;55.708;37.478;2022-10-16T11:35:36;100711.59;;;24.57;19.22
49825;BME280;35714;55.708;37.478;2022-10-16T11:38:09;100705.50;;;24.31;18.94
49825;BME280;35714;55.708;37.478;2022-10-16T11:40:38;100701.03;;;24.35;19.17
49825;BME280;35714;55.708;37.478;2022-10-16T11:43:20;100709.75;;;24.23;19.52
49825;BME280;35714;55.708;37.478;2022-10-16T11:45:54;100700.19;;;24.35;18.64
49825;BME280;35714;55.708;37.478;2022-10-16T11:51:39;100696.66;;;24.05;19.60
49825;BME280;35714;55.708;37.478;2022-10-16T11:54:19;100694.09;;;24.13;19.38
49825;BME280;35714;55.708;37.478;2022-10-16T11:56:50;100700.56;;;24.28;19.18
49825;BME280;35714;55.708;37.478;2022-10-16T11:59:42;100694.44;;;24.31;19.55
49825;BME280;35714;55.708;37.478;2022-10-16T12:05:04;100707.88;;;24.19;19.09
49825;BME280;35714;55.708;37.478;2022-10-16T12:07:37;100713.44;;;23.89;19.35
49825;BME280;35714;55.708;37.478;2022-10-16T12:10:38;100705.78;;;23.52;20.05
49825;BME280;35714;55.708;37.478;2022-10-16T12:13:26;100700.94;;;22.94;20.27
49825;BME280;35714;55.708;37.478;2022-10-16T12:15:50;100695.38;;;22.44;20.68
49825;BME280;35714;55.708;37.478;2022-10-16T12:18:23;100689.81;;;22.49;20.74
49825;BME280;35714;55.708;37.478;2022-10-16T12:20:56;100700.53;;;22.66;20.65
49825;BME280;35714;55.708;37.478;2022-10-16T12:23:32;100688.91;;;22.69;20.90
49825;BME280;35714;55.708;37.478;2022-10-16T12:25:59;100714.66;;;22.54;20.92
49825;BME280;35714;55.708;37.478;2022-10-16T12:28:27;100682.91;;;22.46;20.90
49825;BME280;35714;55.708;37.478;2022-10-16T12:31:03;100671.91;;;22.41;20.94
49825;BME280;35714;55.708;37.478;2022-10-16T12:33:36;100681.06;;;22.21;21.42
49825;BME280;35714;55.708;37.478;2022-10-16T12:36:07;100681.56;;;22.44;21.30
49825;BME280;35714;55.708;37.478;2022-10-16T12:38:47;100687.00;;;22.64;21.06
49825;BME280;35714;55.708;37.478;2022-10-16T12:41:28;100677.06;;;22.58;21.08
49825;BME280;35714;55.708;37.478;2022-10-16T12:43:54;100674.13;;;22.39;21.14
49825;BME280;35714;55.708;37.478;2022-10-16T12:46:24;100678.28;;;22.37;20.88
49825;BME280;35714;55.708;37.478;2022-10-16T12:48:51;100676.00;;;22.49;21.25
49825;BME280;35714;55.708;37.478;2022-10-16T12:51:33;100677.44;;;22.26;21.24
49825;BME280;35714;55.708;37.478;2022-10-16T12:54:10;100674.72;;;22.31;21.35
49825;BME280;35714;55.708;37.478;2022-10-16T13:00:28;100679.47;;;22.15;21.49
49825;BME280;35714;55.708;37.478;2022-10-16T13:18:56;100682.75;;;20.63;23.38
49825;BME280;35714;55.708;37.478;2022-10-16T13:29:09;100682.78;;;20.73;23.28
49825;BME280;35714;55.708;37.478;2022-10-16T13:31:38;100668.94;;;20.52;23.37
49825;BME280;35714;55.708;37.478;2022-10-16T13:34:10;100682.16;;;20.50;23.47
49825;BME280;35714;55.708;37.478;2022-10-16T13:36:45;100676.00;;;20.28;24.22
49825;BME280;35714;55.708;37.478;2022-10-16T13:39:14;100674.91;;;20.24;23.94
49825;BME280;35714;55.708;37.478;2022-10-16T13:41:42;100672.06;;;20.08;24.35
49825;BME280;35714;55.708;37.478;2022-10-16T13:44:15;100673.75;;;20.09;24.51
49825;BME280;35714;55.708;37.478;2022-10-16T13:46:43;100678.06;;;19.95;24.31
49825;BME280;35714;55.708;37.478;2022-10-16T13:49:17;100661.31;;;19.64;24.74
49825;BME280;35714;55.708;37.478;2022-10-16T13:52:03;100671.94;;;19.13;25.45
49825;BME280;35714;55.708;37.478;2022-10-16T13:54:29;100659.78;;;18.54;26.35
49825;BME280;35714;55.708;37.478;2022-10-16T13:56:55;100665.81;;;18.07;27.00
49825;BME280;35714;55.708;37.478;2022-10-16T13:59:34;100674.09;;;17.56;27.80
49825;BME280;35714;55.708;37.478;2022-10-16T14:02:14;100669.28;;;16.83;28.58
49825;BME280;35714;55.708;37.478;2022-10-16T14:04:43;100666.69;;;16.07;29.80
49825;BME280;35714;55.708;37.478;2022-10-16T14:07:23;100673.59;;;15.50;30.74
49825;BME280;35714;55.708;37.478;2022-10-16T14:09:51;100670.66;;;14.98;32.01
49825;BME280;35714;55.708;37.478;2022-10-16T14:12:19;100685.50;;;14.60;32.67
49825;BME280;35714;55.708;37.478;2022-10-16T14:14:55;100671.88;;;14.23;33.39
49825;BME280;35714;55.708;37.478;2022-10-16T14:17:31;100671.56;;;13.94;34.01
49825;BME280;35714;55.708;37.478;2022-10-16T14:20:00;100674.50;;;13.74;34.53
49825;BME280;35714;55.708;37.478;2022-10-16T14:22:37;100670.63;;;13.63;35.21
49825;BME280;35714;55.708;37.478;2022-10-16T14:27:45;100676.22;;;13.18;36.02
49825;BME280;35714;55.708;37.478;2022-10-16T14:30:20;100670.16;;;12.91;36.66
49825;BME280;35714;55.708;37.478;2022-10-16T14:33:03;100674.03;;;12.70;36.99
49825;BME280;35714;55.708;37.478;2022-10-16T14:35:36;100676.03;;;12.49;37.30
49825;BME280;35714;55.708;37.478;2022-10-16T14:38:04;100670.03;;;12.34;37.56
49825;BME280;35714;55.708;37.478;2022-10-16T14:40:36;100673.16;;;12.31;38.16
49825;BME280;35714;55.708;37.478;2022-10-16T14:43:04;100682.00;;;12.19;38.11
49825;BME280;35714;55.708;37.478;2022-10-16T14:45:33;100676.19;;;12.09;38.44
49825;BME280;35714;55.708;37.478;2022-10-16T14:48:04;100682.50;;;12.03;38.88
49825;BME280;35714;55.708;37.478;2022-10-16T14:50:33;100678.34;;;11.94;38.77
49825;BME280;35714;55.708;37.478;2022-10-16T14:52:58;100683.75;;;11.87;38.98